sensor_id;sensor_type;location;lat;lon;timestamp;P1;durP1;ratioP1;P2;durP2;ratioP2
50853;SDS011;44154;45.506;-122.806;2022-12-04T00:01:11;2.88;;;0.38;;
50853;SDS011;44154;45.506;-122.806;2022-12-04T00:03:38;3.17;;;0.52;;
50853;SDS011;44154;45.506;-122.806;2022-12-04T00:06:07;4.38;;;0.50;;
50853;SDS011;44154;45.506;-122.806;2022-12-04T00:08:35;3.85;;;0.47;;
50853;SDS011;44154;45.506;-122.806;2022-12-04T00:11:03;2.50;;;0.50;;
50853;SDS011;44154;45.506;-122.806;2022-12-04T00:13:30;0.88;;;0.28;;
50853;SDS011;44154;45.506;-122.806;2022-12-04T00:15:58;0.47;;;0.25;;
50853;SDS011;44154;45.506;-122.806;2022-12-04T00:18:25;0.25;;;0.20;;
50853;SDS011;44154;45.506;-122.806;2022-12-04T00:20:51;1.17;;;0.57;;
50853;SDS011;44154;45.506;-122.806;2022-12-04T00:23:18;1.92;;;0.40;;
50853;SDS011;44154;45.506;-122.806;2022-12-04T00:25:44;1.30;;;0.35;;
50853;SDS011;44154;45.506;-122.806;2022-12-04T00:28:17;2.80;;;0.52;;
50853;SDS011;44154;45.506;-122.806;2022-12-04T00:30:44;4.40;;;0.70;;
50853;SDS011;44154;45.506;-122.806;2022-12-04T00:33:11;0.68;;;0.30;;
50853;SDS011;44154;45.506;-122.806;2022-12-04T00:35:38;4.97;;;0.85;;
50853;SDS011;44154;45.506;-122.806;2022-12-04T00:38:04;2.72;;;0.65;;
50853;SDS011;44154;45.506;-122.806;2022-12-04T00:40:30;3.10;;;0.95;;
50853;SDS011;44154;45.506;-122.806;2022-12-04T00:42:57;3.33;;;0.60;;
50853;SDS011;44154;45.506;-122.806;2022-12-04T00:45:23;2.75;;;0.43;;
50853;SDS011;44154;45.506;-122.806;2022-12-04T00:47:49;1.88;;;0.40;;
50853;SDS011;44154;45.506;-122.806;2022-12-04T00:50:15;3.20;;;0.63;;
50853;SDS011;44154;45.506;-122.806;2022-12-04T00:52:41;2.08;;;0.50;;
50853;SDS011;44154;45.506;-122.806;2022-12-04T00:55:08;2.38;;;0.40;;
50853;SDS011;44154;45.506;-122.806;2022-12-04T00:57:34;2.22;;;0.50;;
50853;SDS011;44154;45.506;-122.806;2022-12-04T01:00:00;5.03;;;0.70;;
50853;SDS011;44154;45.506;-122.806;2022-12-04T01:02:28;3.47;;;0.70;;
50853;SDS011;44154;45.506;-122.806;2022-12-04T01:04:55;6.32;;;0.77;;
50853;SDS011;44154;45.506;-122.806;2022-12-04T01:07:21;2.97;;;0.80;;
50853;SDS011;44154;45.506;-122.806;2022-12-04T01:09:48;3.22;;;0.60;;
50853;SDS011;44154;45.506;-122.806;2022-12-04T01:12:14;3.67;;;0.63;;
50853;SDS011;44154;45.506;-122.806;2022-12-04T01:14:40;1.60;;;0.50;;
50853;SDS011;44154;45.506;-122.806;2022-12-04T01:17:06;0.85;;;0.43;;
50853;SDS011;44154;45.506;-122.806;2022-12-04T01:19:32;2.28;;;0.35;;
50853;SDS011;44154;45.506;-122.806;2022-12-04T01:21:58;1.20;;;0.40;;
50853;SDS011;44154;45.506;-122.806;2022-12-04T01:24:25;2.08;;;1.02;;
50853;SDS011;44154;45.506;-122.806;2022-12-04T01:26:51;1.25;;;0.40;;
50853;SDS011;44154;45.506;-122.806;2022-12-04T01:29:17;0.88;;;0.40;;
50853;SDS011;44154;45.506;-122.806;2022-12-04T01:31:43;3.47;;;0.50;;
50853;SDS011;44154;45.506;-122.806;2022-12-04T01:34:09;2.40;;;0.40;;
50853;SDS011;44154;45.506;-122.806;2022-12-04T01:36:36;1.55;;;0.32;;
50853;SDS011;44154;45.506;-122.806;2022-12-04T01:39:02;1.27;;;0.40;;
50853;SDS011;44154;45.506;-122.806;2022-12-04T01:41:29;1.85;;;0.43;;
50853;SDS011;44154;45.506;-122.806;2022-12-04T01:44:10;2.05;;;0.40;;
50853;SDS011;44154;45.506;-122.806;2022-12-04T01:46:39;1.73;;;0.40;;
50853;SDS011;44154;45.506;-122.806;2022-12-04T01:49:28;0.52;;;0.30;;
50853;SDS011;44154;45.506;-122.806;2022-12-04T01:52:03;2.08;;;0.40;;
50853;SDS011;44154;45.506;-122.806;2022-12-04T01:54:35;2.20;;;0.50;;
50853;SDS011;44154;45.506;-122.806;2022-12-04T01:57:15;2.38;;;0.40;;
50853;SDS011;44154;45.506;-122.806;2022-12-04T01:59:54;0.70;;;0.30;;
50853;SDS011;44154;45.506;-122.806;2022-12-04T02:02:26;1.58;;;0.35;;
50853;SDS011;44154;45.506;-122.806;2022-12-04T02:04:57;3.30;;;0.73;;
50853;SDS011;44154;45.506;-122.806;2022-12-04T02:07:24;2.38;;;0.82;;
50853;SDS011;44154;45.506;-122.806;2022-12-04T02:09:51;1.63;;;0.57;;
50853;SDS011;44154;45.506;-122.806;2022-12-04T02:26:18;1.00;;;0.30;;
50853;SDS011;44154;45.506;-122.806;2022-12-04T02:31:40;1.85;;;0.47;;
50853;SDS011;44154;45.506;-122.806;2022-12-04T02:34:29;2.17;;;0.50;;
50853;SDS011;44154;45.506;-122.806;2022-12-04T02:37:20;1.02;;;0.40;;
50853;SDS011;44154;45.506;-122.806;2022-12-04T02:42:45;1.25;;;0.30;;
50853;SDS011;44154;45.506;-122.806;2022-12-04T02:45:19;1.85;;;0.65;;
50853;SDS011;44154;45.506;-122.806;2022-12-04T02:47:50;2.00;;;0.50;;
50853;SDS011;44154;45.506;-122.806;2022-12-04T02:50:18;1.35;;;0.40;;
50853;SDS011;44154;45.506;-122.806;2022-12-04T02:53:31;0.75;;;0.43;;
50853;SDS011;44154;45.506;-122.806;2022-12-04T02:55:45;1.65;;;0.30;;
50853;SDS011;44154;45.506;-122.806;2022-12-04T02:58:20;1.67;;;0.30;;
50853;SDS011;44154;45.506;-122.806;2022-12-04T03:00:53;0.47;;;0.20;;
50853;SDS011;44154;45.506;-122.806;2022-12-04T03:03:23;1.70;;;0.30;;
50853;SDS011;44154;45.506;-122.806;2022-12-04T03:06:03;0.68;;;0.40;;
50853;SDS011;44154;45.506;-122.806;2022-12-04T03:08:36;3.08;;;0.63;;
50853;SDS011;44154;45.506;-122.806;2022-12-04T03:11:07;1.85;;;0.30;;
50853;SDS011;44154;45.506;-122.806;2022-12-04T03:13:35;1.70;;;0.52;;
50853;SDS011;44154;45.506;-122.806;2022-12-04T03:16:05;4.93;;;0.50;;
50853;SDS011;44154;45.506;-122.806;2022-12-04T03:18:54;3.03;;;0.57;;
50853;SDS011;44154;45.506;-122.806;2022-12-04T03:21:27;1.65;;;0.40;;
50853;SDS011;44154;45.506;-122.806;2022-12-04T03:26:41;1.95;;;0.30;;
50853;SDS011;44154;45.506;-122.806;2022-12-04T03:29:15;5.03;;;0.40;;
50853;SDS011;44154;45.506;-122.806;2022-12-04T03:31:50;2.95;;;0.50;;
50853;SDS011;44154;45.506;-122.806;2022-12-04T03:34:31;3.78;;;0.50;;
50853;SDS011;44154;45.506;-122.806;2022-12-04T03:37:14;1.67;;;0.50;;
50853;SDS011;44154;45.506;-122.806;2022-12-04T03:42:38;2.15;;;0.40;;
50853;SDS011;44154;45.506;-122.806;2022-12-04T03:48:21;1.20;;;0.40;;
50853;SDS011;44154;45.506;-122.806;2022-12-04T03:51:11;1.65;;;0.30;;
50853;SDS011;44154;45.506;-122.806;2022-12-04T03:54:25;1.63;;;0.30;;
50853;SDS011;44154;45.506;-122.806;2022-12-04T03:56:59;3.30;;;1.05;;
50853;SDS011;44154;45.506;-122.806;2022-12-04T03:59:36;2.88;;;0.45;;
50853;SDS011;44154;45.506;-122.806;2022-12-04T04:02:26;3.65;;;0.50;;
50853;SDS011;44154;45.506;-122.806;2022-12-04T04:04:57;1.90;;;0.40;;
50853;SDS011;44154;45.506;-122.806;2022-12-04T04:07:33;2.92;;;0.55;;
50853;SDS011;44154;45.506;-122.806;2022-12-04T04:10:42;8.45;;;0.70;;
50853;SDS011;44154;45.506;-122.806;2022-12-04T04:13:10;2.22;;;0.80;;
50853;SDS011;44154;45.506;-122.806;2022-12-04T04:15:59;3.00;;;1.13;;
50853;SDS011;44154;45.506;-122.806;2022-12-04T04:18:47;2.28;;;0.88;;
50853;SDS011;44154;45.506;-122.806;2022-12-04T04:21:34;1.77;;;0.65;;
50853;SDS011;44154;45.506;-122.806;2022-12-04T04:24:34;1.73;;;0.80;;
50853;SDS011;44154;45.506;-122.806;2022-12-04T04:27:05;1.83;;;0.60;;
50853;SDS011;44154;45.506;-122.806;2022-12-04T04:29:31;1.95;;;0.60;;
50853;SDS011;44154;45.506;-122.806;2022-12-04T04:37:08;2.90;;;0.70;;
50853;SDS011;44154;45.506;-122.806;2022-12-04T04:42:38;3.28;;;2.50;;
50853;SDS011;44154;45.506;-122.806;2022-12-04T04:47:51;3.33;;;1.40;;
50853;SDS011;44154;45.506;-122.806;2022-12-04T04:50:23;2.40;;;1.50;;
50853;SDS011;44154;45.506;-122.806;2022-12-04T04:52:51;1.88;;;1.15;;
50853;SDS011;44154;45.506;-122.806;2022-12-04T04:55:22;2.73;;;1.50;;
50853;SDS011;44154;45.506;-122.806;2022-12-04T04:57:49;2.58;;;1.48;;
50853;SDS011;44154;45.506;-122.806;2022-12-04T05:00:17;2.85;;;1.70;;
50853;SDS011;44154;45.506;-122.806;2022-12-04T05:02:46;1.85;;;1.25;;
50853;SDS011;44154;45.506;-122.806;2022-12-04T05:05:15;2.97;;;1.50;;
50853;SDS011;44154;45.506;-122.806;2022-12-04T05:07:42;2.60;;;1.35;;
50853;SDS011;44154;45.506;-122.806;2022-12-04T05:10:08;3.95;;;3.10;;
50853;SDS011;44154;45.506;-122.806;2022-12-04T05:12:35;4.05;;;3.35;;
50853;SDS011;44154;45.506;-122.806;2022-12-04T05:15:01;3.28;;;2.35;;
50853;SDS011;44154;45.506;-122.806;2022-12-04T05:17:27;2.42;;;1.92;;
50853;SDS011;44154;45.506;-122.806;2022-12-04T05:19:54;3.15;;;2.05;;
50853;SDS011;44154;45.506;-122.806;2022-12-04T05:25:01;2.95;;;1.77;;
50853;SDS011;44154;45.506;-122.806;2022-12-04T05:27:29;2.47;;;1.52;;
50853;SDS011;44154;45.506;-122.806;2022-12-04T05:29:56;2.30;;;1.42;;
50853;SDS011;44154;45.506;-122.806;2022-12-04T05:32:24;2.60;;;1.60;;
50853;SDS011;44154;45.506;-122.806;2022-12-04T05:34:52;2.25;;;1.60;;
50853;SDS011;44154;45.506;-122.806;2022-12-04T05:37:19;4.68;;;3.05;;
50853;SDS011;44154;45.506;-122.806;2022-12-04T05:39:46;4.30;;;3.47;;
50853;SDS011;44154;45.506;-122.806;2022-12-04T05:42:13;3.08;;;2.58;;
50853;SDS011;44154;45.506;-122.806;2022-12-04T05:44:39;2.97;;;2.20;;
50853;SDS011;44154;45.506;-122.806;2022-12-04T05:47:06;2.90;;;2.28;;
50853;SDS011;44154;45.506;-122.806;2022-12-04T05:49:32;2.42;;;1.80;;
50853;SDS011;44154;45.506;-122.806;2022-12-04T05:52:00;2.28;;;1.95;;
50853;SDS011;44154;45.506;-122.806;2022-12-04T05:54:28;3.67;;;1.80;;
50853;SDS011;44154;45.506;-122.806;2022-12-04T05:56:56;2.72;;;1.65;;
50853;SDS011;44154;45.506;-122.806;2022-12-04T05:59:22;3.33;;;1.85;;
50853;SDS011;44154;45.506;-122.806;2022-12-04T06:01:48;1.98;;;1.60;;
50853;SDS011;44154;45.506;-122.806;2022-12-04T06:04:14;4.25;;;3.55;;
50853;SDS011;44154;45.506;-122.806;2022-12-04T06:06:40;4.22;;;3.17;;
50853;SDS011;44154;45.506;-122.806;2022-12-04T06:09:07;2.88;;;2.40;;
50853;SDS011;44154;45.506;-122.806;2022-12-04T06:11:34;2.15;;;1.95;;
50853;SDS011;44154;45.506;-122.806;2022-12-04T06:14:04;2.95;;;2.20;;
50853;SDS011;44154;45.506;-122.806;2022-12-04T06:16:33;2.67;;;1.90;;
50853;SDS011;44154;45.506;-122.806;2022-12-04T06:19:02;3.05;;;1.90;;
50853;SDS011;44154;45.506;-122.806;2022-12-04T06:21:38;2.08;;;1.80;;
50853;SDS011;44154;45.506;-122.806;2022-12-04T06:24:05;2.90;;;2.00;;
50853;SDS011;44154;45.506;-122.806;2022-12-04T06:26:33;2.60;;;1.90;;
50853;SDS011;44154;45.506;-122.806;2022-12-04T06:28:59;4.05;;;3.60;;
50853;SDS011;44154;45.506;-122.806;2022-12-04T06:31:26;3.95;;;3.30;;
50853;SDS011;44154;45.506;-122.806;2022-12-04T06:33:54;3.50;;;2.95;;
50853;SDS011;44154;45.506;-122.806;2022-12-04T06:36:21;2.47;;;2.13;;
50853;SDS011;44154;45.506;-122.806;2022-12-04T06:38:49;2.63;;;2.20;;
50853;SDS011;44154;45.506;-122.806;2022-12-04T06:41:17;2.33;;;1.95;;
50853;SDS011;44154;45.506;-122.806;2022-12-04T06:43:45;2.85;;;2.17;;
50853;SDS011;44154;45.506;-122.806;2022-12-04T06:46:12;2.38;;;1.92;;
50853;SDS011;44154;45.506;-122.806;2022-12-04T06:48:41;3.28;;;1.90;;
50853;SDS011;44154;45.506;-122.806;2022-12-04T06:51:08;2.58;;;1.98;;
50853;SDS011;44154;45.506;-122.806;2022-12-04T06:53:39;4.67;;;3.60;;
50853;SDS011;44154;45.506;-122.806;2022-12-04T06:56:07;4.00;;;3.40;;
50853;SDS011;44154;45.506;-122.806;2022-12-04T06:58:35;3.53;;;2.75;;
50853;SDS011;44154;45.506;-122.806;2022-12-04T07:01:09;2.80;;;2.30;;
50853;SDS011;44154;45.506;-122.806;2022-12-04T07:03:37;4.15;;;2.13;;
50853;SDS011;44154;45.506;-122.806;2022-12-04T07:06:13;2.80;;;2.10;;
50853;SDS011;44154;45.506;-122.806;2022-12-04T07:08:42;3.05;;;2.08;;
50853;SDS011;44154;45.506;-122.806;2022-12-04T07:11:10;3.10;;;2.00;;
50853;SDS011;44154;45.506;-122.806;2022-12-04T07:13:37;2.83;;;2.10;;
50853;SDS011;44154;45.506;-122.806;2022-12-04T07:16:04;2.83;;;1.88;;
50853;SDS011;44154;45.506;-122.806;2022-12-04T07:18:34;2.35;;;1.83;;
50853;SDS011;44154;45.506;-122.806;2022-12-04T07:21:07;2.10;;;1.90;;
50853;SDS011;44154;45.506;-122.806;2022-12-04T07:23:36;2.80;;;1.73;;
50853;SDS011;44154;45.506;-122.806;2022-12-04T07:26:11;2.67;;;1.98;;
50853;SDS011;44154;45.506;-122.806;2022-12-04T07:28:38;3.47;;;2.15;;
50853;SDS011;44154;45.506;-122.806;2022-12-04T07:31:06;2.53;;;2.15;;
50853;SDS011;44154;45.506;-122.806;2022-12-04T07:33:35;3.75;;;1.88;;
50853;SDS011;44154;45.506;-122.806;2022-12-04T07:36:02;3.83;;;1.60;;
50853;SDS011;44154;45.506;-122.806;2022-12-04T07:38:30;5.60;;;1.85;;
50853;SDS011;44154;45.506;-122.806;2022-12-04T07:40:58;6.20;;;3.22;;
50853;SDS011;44154;45.506;-122.806;2022-12-04T07:43:24;4.43;;;2.78;;
50853;SDS011;44154;45.506;-122.806;2022-12-04T07:45:51;3.83;;;2.58;;
50853;SDS011;44154;45.506;-122.806;2022-12-04T07:48:17;7.03;;;5.32;;
50853;SDS011;44154;45.506;-122.806;2022-12-04T07:50:44;10.43;;;9.27;;
50853;SDS011;44154;45.506;-122.806;2022-12-04T07:53:10;9.93;;;7.80;;
50853;SDS011;44154;45.506;-122.806;2022-12-04T07:55:36;9.15;;;7.60;;
50853;SDS011;44154;45.506;-122.806;2022-12-04T07:58:03;7.32;;;4.30;;
50853;SDS011;44154;45.506;-122.806;2022-12-04T08:00:29;5.95;;;4.53;;
50853;SDS011;44154;45.506;-122.806;2022-12-04T08:02:55;5.25;;;4.55;;
50853;SDS011;44154;45.506;-122.806;2022-12-04T08:05:21;4.55;;;3.80;;
50853;SDS011;44154;45.506;-122.806;2022-12-04T08:07:47;6.05;;;5.43;;
50853;SDS011;44154;45.506;-122.806;2022-12-04T08:10:13;5.82;;;4.78;;
50853;SDS011;44154;45.506;-122.806;2022-12-04T08:12:40;6.07;;;5.03;;
50853;SDS011;44154;45.506;-122.806;2022-12-04T08:15:06;6.93;;;4.68;;
50853;SDS011;44154;45.506;-122.806;2022-12-04T08:17:33;6.40;;;4.57;;
50853;SDS011;44154;45.506;-122.806;2022-12-04T08:19:59;5.82;;;4.47;;
50853;SDS011;44154;45.506;-122.806;2022-12-04T08:22:25;6.05;;;4.80;;
50853;SDS011;44154;45.506;-122.806;2022-12-04T08:24:51;6.30;;;5.60;;
50853;SDS011;44154;45.506;-122.806;2022-12-04T08:27:18;10.27;;;9.27;;
50853;SDS011;44154;45.506;-122.806;2022-12-04T08:29:44;12.57;;;11.38;;
50853;SDS011;44154;45.506;-122.806;2022-12-04T08:32:10;11.48;;;10.38;;
50853;SDS011;44154;45.506;-122.806;2022-12-04T08:34:36;11.55;;;10.45;;
50853;SDS011;44154;45.506;-122.806;2022-12-04T08:37:02;9.85;;;8.85;;
50853;SDS011;44154;45.506;-122.806;2022-12-04T08:39:29;10.15;;;8.75;;
50853;SDS011;44154;45.506;-122.806;2022-12-04T08:41:55;9.30;;;8.40;;
50853;SDS011;44154;45.506;-122.806;2022-12-04T08:44:21;9.57;;;8.52;;
50853;SDS011;44154;45.506;-122.806;2022-12-04T08:46:47;8.27;;;7.47;;
50853;SDS011;44154;45.506;-122.806;2022-12-04T08:49:13;8.88;;;8.02;;
50853;SDS011;44154;45.506;-122.806;2022-12-04T08:51:40;9.60;;;8.70;;
50853;SDS011;44154;45.506;-122.806;2022-12-04T08:54:06;8.85;;;8.05;;
50853;SDS011;44154;45.506;-122.806;2022-12-04T08:56:36;8.93;;;8.02;;
50853;SDS011;44154;45.506;-122.806;2022-12-04T08:59:02;10.50;;;9.45;;
50853;SDS011;44154;45.506;-122.806;2022-12-04T09:01:29;15.07;;;13.68;;
50853;SDS011;44154;45.506;-122.806;2022-12-04T09:03:55;16.02;;;14.63;;
50853;SDS011;44154;45.506;-122.806;2022-12-04T09:06:22;14.65;;;13.35;;
50853;SDS011;44154;45.506;-122.806;2022-12-04T09:08:52;13.23;;;11.93;;
50853;SDS011;44154;45.506;-122.806;2022-12-04T09:11:20;12.05;;;10.95;;
50853;SDS011;44154;45.506;-122.806;2022-12-04T09:16:19;12.75;;;11.55;;
50853;SDS011;44154;45.506;-122.806;2022-12-04T09:18:48;12.15;;;11.05;;
50853;SDS011;44154;45.506;-122.806;2022-12-04T09:21:15;11.73;;;10.63;;
50853;SDS011;44154;45.506;-122.806;2022-12-04T09:23:44;11.40;;;10.35;;
50853;SDS011;44154;45.506;-122.806;2022-12-04T09:26:23;12.48;;;11.38;;
50853;SDS011;44154;45.506;-122.806;2022-12-04T09:28:51;12.25;;;11.15;;
50853;SDS011;44154;45.506;-122.806;2022-12-04T09:31:21;16.45;;;14.95;;
50853;SDS011;44154;45.506;-122.806;2022-12-04T09:33:48;17.63;;;16.13;;
50853;SDS011;44154;45.506;-122.806;2022-12-04T09:36:14;37.08;;;33.88;;
50853;SDS011;44154;45.506;-122.806;2022-12-04T09:38:45;60.75;;;55.35;;
50853;SDS011;44154;45.506;-122.806;2022-12-04T09:43:49;40.80;;;37.28;;
50853;SDS011;44154;45.506;-122.806;2022-12-04T09:49:46;37.67;;;34.38;;
50853;SDS011;44154;45.506;-122.806;2022-12-04T09:55:17;37.78;;;34.47;;
50853;SDS011;44154;45.506;-122.806;2022-12-04T09:57:57;39.55;;;36.15;;
50853;SDS011;44154;45.506;-122.806;2022-12-04T10:00:27;35.60;;;32.50;;
50853;SDS011;44154;45.506;-122.806;2022-12-04T10:03:01;31.80;;;29.00;;
50853;SDS011;44154;45.506;-122.806;2022-12-04T10:08:34;32.67;;;29.67;;
50853;SDS011;44154;45.506;-122.806;2022-12-04T10:25:49;31.88;;;29.17;;
50853;SDS011;44154;45.506;-122.806;2022-12-04T10:31:03;30.05;;;27.35;;
50853;SDS011;44154;45.506;-122.806;2022-12-04T10:33:40;27.23;;;24.85;;
50853;SDS011;44154;45.506;-122.806;2022-12-04T10:36:12;22.90;;;20.83;;
50853;SDS011;44154;45.506;-122.806;2022-12-04T10:38:52;27.65;;;25.25;;
50853;SDS011;44154;45.506;-122.806;2022-12-04T10:43:54;26.40;;;23.90;;
50853;SDS011;44154;45.506;-122.806;2022-12-04T10:46:24;26.20;;;23.90;;
50853;SDS011;44154;45.506;-122.806;2022-12-04T10:48:57;27.25;;;24.95;;
50853;SDS011;44154;45.506;-122.806;2022-12-04T10:51:38;28.77;;;26.20;;
50853;SDS011;44154;45.506;-122.806;2022-12-04T10:57:07;28.45;;;25.92;;
50853;SDS011;44154;45.506;-122.806;2022-12-04T10:59:37;27.05;;;24.65;;
50853;SDS011;44154;45.506;-122.806;2022-12-04T11:02:25;24.88;;;22.60;;
50853;SDS011;44154;45.506;-122.806;2022-12-04T11:07:25;23.50;;;21.48;;
50853;SDS011;44154;45.506;-122.806;2022-12-04T11:09:55;23.55;;;21.48;;
50853;SDS011;44154;45.506;-122.806;2022-12-04T11:12:30;24.98;;;22.77;;
50853;SDS011;44154;45.506;-122.806;2022-12-04T11:15:00;25.17;;;22.98;;
50853;SDS011;44154;45.506;-122.806;2022-12-04T11:17:46;22.85;;;20.75;;
50853;SDS011;44154;45.506;-122.806;2022-12-04T11:20:17;25.25;;;23.05;;
50853;SDS011;44154;45.506;-122.806;2022-12-04T11:22:50;27.10;;;24.70;;
50853;SDS011;44154;45.506;-122.806;2022-12-04T11:25:27;25.83;;;23.52;;
50853;SDS011;44154;45.506;-122.806;2022-12-04T11:28:00;25.27;;;23.08;;
50853;SDS011;44154;45.506;-122.806;2022-12-04T11:30:36;27.50;;;25.00;;
50853;SDS011;44154;45.506;-122.806;2022-12-04T11:33:03;23.77;;;21.73;;
50853;SDS011;44154;45.506;-122.806;2022-12-04T11:35:40;19.20;;;17.55;;
50853;SDS011;44154;45.506;-122.806;2022-12-04T11:38:13;19.60;;;17.92;;
50853;SDS011;44154;45.506;-122.806;2022-12-04T11:40:46;24.88;;;22.70;;
50853;SDS011;44154;45.506;-122.806;2022-12-04T11:43:14;23.55;;;21.45;;
50853;SDS011;44154;45.506;-122.806;2022-12-04T11:45:56;23.52;;;21.50;;
50853;SDS011;44154;45.506;-122.806;2022-12-04T11:48:24;23.65;;;21.42;;
50853;SDS011;44154;45.506;-122.806;2022-12-04T11:54:05;24.08;;;21.98;;
50853;SDS011;44154;45.506;-122.806;2022-12-04T11:56:46;26.52;;;24.23;;
50853;SDS011;44154;45.506;-122.806;2022-12-04T12:02:39;23.25;;;21.25;;
50853;SDS011;44154;45.506;-122.806;2022-12-04T12:16:32;23.50;;;21.50;;
50853;SDS011;44154;45.506;-122.806;2022-12-04T12:19:07;22.98;;;20.88;;
50853;SDS011;44154;45.506;-122.806;2022-12-04T12:21:56;22.55;;;20.55;;
50853;SDS011;44154;45.506;-122.806;2022-12-04T12:33:23;21.98;;;19.95;;
50853;SDS011;44154;45.506;-122.806;2022-12-04T12:38:33;22.10;;;20.20;;
50853;SDS011;44154;45.506;-122.806;2022-12-04T12:41:24;20.55;;;18.75;;
50853;SDS011;44154;45.506;-122.806;2022-12-04T12:44:20;22.20;;;20.30;;
50853;SDS011;44154;45.506;-122.806;2022-12-04T12:47:08;20.42;;;18.52;;
50853;SDS011;44154;45.506;-122.806;2022-12-04T12:55:29;22.02;;;20.13;;
50853;SDS011;44154;45.506;-122.806;2022-12-04T12:58:18;23.55;;;21.38;;
50853;SDS011;44154;45.506;-122.806;2022-12-04T13:01:16;22.95;;;20.88;;
50853;SDS011;44154;45.506;-122.806;2022-12-04T13:06:34;17.20;;;15.70;;
50853;SDS011;44154;45.506;-122.806;2022-12-04T13:12:09;19.65;;;17.85;;
50853;SDS011;44154;45.506;-122.806;2022-12-04T13:14:38;22.10;;;20.15;;
50853;SDS011;44154;45.506;-122.806;2022-12-04T13:17:07;20.83;;;19.00;;
50853;SDS011;44154;45.506;-122.806;2022-12-04T13:19:41;22.08;;;20.17;;
50853;SDS011;44154;45.506;-122.806;2022-12-04T13:41:36;18.27;;;16.67;;
50853;SDS011;44154;45.506;-122.806;2022-12-04T13:44:11;18.13;;;16.52;;
50853;SDS011;44154;45.506;-122.806;2022-12-04T13:46:58;19.23;;;17.55;;
50853;SDS011;44154;45.506;-122.806;2022-12-04T13:49:44;20.55;;;18.75;;
50853;SDS011;44154;45.506;-122.806;2022-12-04T13:52:24;21.20;;;19.30;;
50853;SDS011;44154;45.506;-122.806;2022-12-04T13:55:20;20.42;;;18.42;;
50853;SDS011;44154;45.506;-122.806;2022-12-04T13:57:57;21.67;;;19.77;;
50853;SDS011;44154;45.506;-122.806;2022-12-04T14:00:32;21.23;;;19.33;;
50853;SDS011;44154;45.506;-122.806;2022-12-04T14:03:02;18.38;;;16.77;;
50853;SDS011;44154;45.506;-122.806;2022-12-04T14:05:37;17.20;;;15.50;;
50853;SDS011;44154;45.506;-122.806;2022-12-04T14:08:15;20.42;;;18.55;;
50853;SDS011;44154;45.506;-122.806;2022-12-04T14:11:00;16.58;;;15.18;;
50853;SDS011;44154;45.506;-122.806;2022-12-04T14:14:03;19.77;;;18.08;;
50853;SDS011;44154;45.506;-122.806;2022-12-04T14:16:38;18.63;;;16.83;;
50853;SDS011;44154;45.506;-122.806;2022-12-04T14:19:06;19.58;;;17.88;;
50853;SDS011;44154;45.506;-122.806;2022-12-04T14:21:43;19.08;;;17.27;;
50853;SDS011;44154;45.506;-122.806;2022-12-04T14:29:53;19.13;;;17.55;;
50853;SDS011;44154;45.506;-122.806;2022-12-04T14:32:23;19.85;;;17.98;;
50853;SDS011;44154;45.506;-122.806;2022-12-04T14:34:53;16.92;;;15.35;;
50853;SDS011;44154;45.506;-122.806;2022-12-04T14:39:53;19.13;;;17.63;;
50853;SDS011;44154;45.506;-122.806;2022-12-04T14:42:45;17.77;;;16.17;;
50853;SDS011;44154;45.506;-122.806;2022-12-04T14:45:19;17.90;;;16.27;;
50853;SDS011;44154;45.506;-122.806;2022-12-04T14:48:14;17.15;;;15.65;;
50853;SDS011;44154;45.506;-122.806;2022-12-04T14:53:40;14.95;;;13.65;;
50853;SDS011;44154;45.506;-122.806;2022-12-04T14:58:58;14.63;;;13.27;;
50853;SDS011;44154;45.506;-122.806;2022-12-04T15:01:50;14.45;;;13.05;;
50853;SDS011;44154;45.506;-122.806;2022-12-04T15:04:29;14.70;;;13.40;;
50853;SDS011;44154;45.506;-122.806;2022-12-04T15:06:59;16.38;;;14.95;;
50853;SDS011;44154;45.506;-122.806;2022-12-04T15:09:27;16.10;;;14.63;;
50853;SDS011;44154;45.506;-122.806;2022-12-04T15:12:21;13.75;;;12.52;;
50853;SDS011;44154;45.506;-122.806;2022-12-04T15:15:03;16.90;;;15.27;;
50853;SDS011;44154;45.506;-122.806;2022-12-04T15:17:37;14.65;;;13.32;;
50853;SDS011;44154;45.506;-122.806;2022-12-04T15:20:08;14.57;;;13.25;;
50853;SDS011;44154;45.506;-122.806;2022-12-04T15:22:44;13.18;;;11.95;;
50853;SDS011;44154;45.506;-122.806;2022-12-04T15:25:18;12.52;;;11.32;;
50853;SDS011;44154;45.506;-122.806;2022-12-04T15:27:49;11.18;;;10.18;;
50853;SDS011;44154;45.506;-122.806;2022-12-04T15:30:18;16.70;;;15.18;;
50853;SDS011;44154;45.506;-122.806;2022-12-04T15:32:48;17.38;;;15.77;;
50853;SDS011;44154;45.506;-122.806;2022-12-04T15:35:19;15.07;;;13.68;;
50853;SDS011;44154;45.506;-122.806;2022-12-04T15:37:50;10.32;;;9.35;;
50853;SDS011;44154;45.506;-122.806;2022-12-04T15:40:20;12.27;;;11.18;;
50853;SDS011;44154;45.506;-122.806;2022-12-04T15:42:49;10.75;;;9.70;;
50853;SDS011;44154;45.506;-122.806;2022-12-04T15:55:41;7.95;;;7.25;;
50853;SDS011;44154;45.506;-122.806;2022-12-04T16:06:03;8.73;;;7.82;;
50853;SDS011;44154;45.506;-122.806;2022-12-04T16:08:51;8.13;;;7.43;;
50853;SDS011;44154;45.506;-122.806;2022-12-04T16:13:47;9.63;;;8.73;;
50853;SDS011;44154;45.506;-122.806;2022-12-04T16:16:19;9.20;;;8.40;;
50853;SDS011;44154;45.506;-122.806;2022-12-04T16:18:47;8.77;;;8.07;;
50853;SDS011;44154;45.506;-122.806;2022-12-04T16:21:17;7.55;;;6.85;;
50853;SDS011;44154;45.506;-122.806;2022-12-04T16:23:46;7.88;;;7.13;;
50853;SDS011;44154;45.506;-122.806;2022-12-04T16:26:12;9.55;;;8.65;;
50853;SDS011;44154;45.506;-122.806;2022-12-04T16:28:41;11.93;;;10.82;;
50853;SDS011;44154;45.506;-122.806;2022-12-04T16:31:09;17.27;;;13.27;;
50853;SDS011;44154;45.506;-122.806;2022-12-04T16:33:38;14.45;;;13.05;;
50853;SDS011;44154;45.506;-122.806;2022-12-04T16:36:05;17.33;;;15.63;;
50853;SDS011;44154;45.506;-122.806;2022-12-04T16:38:31;17.33;;;15.73;;
50853;SDS011;44154;45.506;-122.806;2022-12-04T16:40:58;18.88;;;17.08;;
50853;SDS011;44154;45.506;-122.806;2022-12-04T16:43:24;17.88;;;16.17;;
50853;SDS011;44154;45.506;-122.806;2022-12-04T16:45:51;16.08;;;14.57;;
50853;SDS011;44154;45.506;-122.806;2022-12-04T16:48:18;15.23;;;13.82;;
50853;SDS011;44154;45.506;-122.806;2022-12-04T16:50:45;18.92;;;17.33;;
50853;SDS011;44154;45.506;-122.806;2022-12-04T16:53:15;19.45;;;17.75;;
50853;SDS011;44154;45.506;-122.806;2022-12-04T16:55:52;24.90;;;22.80;;
50853;SDS011;44154;45.506;-122.806;2022-12-04T16:58:19;21.48;;;19.65;;
50853;SDS011;44154;45.506;-122.806;2022-12-04T17:00:48;20.48;;;18.65;;
50853;SDS011;44154;45.506;-122.806;2022-12-04T17:03:28;21.23;;;19.40;;
50853;SDS011;44154;45.506;-122.806;2022-12-04T17:05:56;23.40;;;21.05;;
50853;SDS011;44154;45.506;-122.806;2022-12-04T17:08:23;22.40;;;20.40;;
50853;SDS011;44154;45.506;-122.806;2022-12-04T17:10:50;20.70;;;18.95;;
50853;SDS011;44154;45.506;-122.806;2022-12-04T17:13:17;26.88;;;24.52;;
50853;SDS011;44154;45.506;-122.806;2022-12-04T17:15:44;27.33;;;24.95;;
50853;SDS011;44154;45.506;-122.806;2022-12-04T17:18:10;22.05;;;20.15;;
50853;SDS011;44154;45.506;-122.806;2022-12-04T17:20:38;20.42;;;18.67;;